Time;durP1;ratioP1;P1;durP2;ratioP2;P2;SDS_P1;SDS_P2;PMS_P1;PMS_P2;Temp;Humidity;BMP_temperature;BMP_pressure;BME280_temperature;BME280_humidity;BME280_pressure;Samples;Min_cycle;Max_cycle;Signal;HPM_P1;HPM_P2
2021/09/17 00:02:10;;;;;;;9.18;3.78;;;;;;;8.41;64.81;100033.56;6245353;22;20012;-79
2021/09/17 00:04:36;;;;;;;7.15;3.85;;;;;;;8.37;64.68;100032.06;6245521;23;20073;-81
2021/09/17 00:07:02;;;;;;;8.25;3.78;;;;;;;8.35;64.98;100034.81;6243869;23;20016;-80
2021/09/17 00:09:28;;;;;;;13.10;4.25;;;;;;;8.31;64.60;100038.59;6245676;22;20019;-78
2021/09/17 00:11:53;;;;;;;6.15;3.50;;;;;;;8.33;64.85;100025.31;6244387;23;20044;-81
2021/09/17 00:14:19;;;;;;;7.40;3.90;;;;;;;8.37;64.67;100026.78;6244537;23;20060;-79
2021/09/17 00:16:45;;;;;;;8.05;3.65;;;;;;;8.31;65.10;100030.69;6244109;23;20078;-82
2021/09/17 00:19:11;;;;;;;9.07;4.13;;;;;;;8.22;65.18;100034.72;6244037;23;20099;-79
2021/09/17 00:21:37;;;;;;;16.88;4.20;;;;;;;8.24;65.58;100037.25;6218778;23;20158;-80
2021/09/17 00:24:03;;;;;;;10.20;4.00;;;;;;;8.26;65.66;100036.22;6244183;23;20018;-81
2021/09/17 00:26:28;;;;;;;8.25;3.88;;;;;;;8.29;65.75;100034.31;6245428;22;20012;-79
2021/09/17 00:28:54;;;;;;;9.20;4.07;;;;;;;8.33;65.14;100035.84;6218195;23;20066;-79
2021/09/17 00:31:20;;;;;;;10.48;3.72;;;;;;;8.32;65.61;100040.25;6193395;23;20012;-80
2021/09/17 00:33:46;;;;;;;7.40;3.80;;;;;;;8.34;65.40;100027.84;6218080;23;20015;-80
2021/09/17 00:36:12;;;;;;;7.63;3.65;;;;;;;8.28;65.46;100037.94;6268400;22;20435;-79
2021/09/17 00:38:38;;;;;;;10.23;3.80;;;;;;;8.28;64.78;100022.13;6192523;23;20004;-80
2021/09/17 00:41:04;;;;;;;6.43;3.53;;;;;;;8.22;64.83;100034.72;6242816;23;20082;-78
2021/09/17 00:43:30;;;;;;;9.48;4.32;;;;;;;8.24;64.75;100027.56;6242894;23;20055;-80
2021/09/17 00:45:56;;;;;;;6.90;3.85;;;;;;;8.28;64.37;100033.47;6244871;22;20081;-79
2021/09/17 00:48:21;;;;;;;8.40;3.83;;;;;;;8.27;63.95;100031.78;6245067;23;20005;-77
2021/09/17 00:50:47;;;;;;;6.28;3.20;;;;;;;8.26;63.86;100032.72;6242785;23;20012;-78
2021/09/17 00:53:13;;;;;;;10.32;4.20;;;;;;;8.21;64.01;100022.50;6244670;23;20012;-79
2021/09/17 00:55:39;;;;;;;6.57;3.50;;;;;;;8.16;63.66;100024.56;6217900;23;20012;-78
2021/09/17 00:58:05;;;;;;;7.25;3.28;;;;;;;8.14;63.53;100025.56;6217598;23;20012;-80
2021/09/17 01:00:31;;;;;;;5.82;3.33;;;;;;;8.21;63.58;100033.03;6243383;23;20023;-80
2021/09/17 01:02:57;;;;;;;7.70;3.53;;;;;;;8.26;63.33;100025.69;6243044;23;20015;-81
2021/09/17 01:05:33;;;;;;;7.00;3.80;;;;;;;8.19;63.52;100027.00;6220336;23;20419;-79
2021/09/17 01:07:59;;;;;;;9.35;4.28;;;;;;;8.16;64.05;100021.94;6243119;23;20019;-79
2021/09/17 01:10:25;;;;;;;7.55;3.22;;;;;;;8.11;63.40;100031.88;6217539;23;20039;-77
2021/09/17 01:12:51;;;;;;;6.45;3.63;;;;;;;8.05;63.88;100026.97;6268242;22;20423;-77
2021/09/17 01:15:17;;;;;;;6.95;3.25;;;;;;;8.03;64.16;100028.88;6243243;23;20036;-77
2021/09/17 01:17:44;;;;;;;8.38;3.90;;;;;;;8.03;64.16;100026.25;6242915;23;20019;-77
2021/09/17 01:20:16;;;;;;;6.82;3.72;;;;;;;8.04;64.23;100026.16;6243144;23;20008;-79
2021/09/17 01:22:43;;;;;;;6.75;3.50;;;;;;;7.93;64.68;100026.78;6244309;22;20613;-77
2021/09/17 01:25:11;;;;;;;7.57;3.47;;;;;;;7.97;64.95;100018.72;6244647;23;20015;-79
2021/09/17 01:27:37;;;;;;;8.30;3.92;;;;;;;7.99;64.87;100016.81;6217014;23;20039;-76
2021/09/17 01:30:05;;;;;;;8.82;3.50;;;;;;;8.01;65.49;100025.50;6244104;23;20016;-78
2021/09/17 01:32:31;;;;;;;10.35;4.45;;;;;;;8.03;64.74;100019.19;6242855;23;20031;-79
2021/09/17 01:34:57;;;;;;;6.28;3.40;;;;;;;8.04;65.14;100025.31;6242216;23;20047;-77
2021/09/17 01:37:22;;;;;;;8.93;4.65;;;;;;;7.94;65.21;100019.75;6244144;23;20078;-77
2021/09/17 01:39:48;;;;;;;9.52;4.28;;;;;;;8.00;65.46;100021.16;6243818;22;20020;-78
2021/09/17 01:42:15;;;;;;;8.80;4.00;;;;;;;7.94;65.22;100015.31;6244416;22;20478;-80
2021/09/17 01:44:41;;;;;;;8.15;3.75;;;;;;;7.83;65.56;100017.75;6268482;22;20008;-80
2021/09/17 01:47:07;;;;;;;10.35;4.18;;;;;;;7.78;65.42;100014.56;6242919;23;20019;-83
2021/09/17 01:49:33;;;;;;;8.52;4.00;;;;;;;7.82;65.68;100016.06;6242807;23;20008;-80
2021/09/17 01:52:00;;;;;;;11.07;4.13;;;;;;;7.80;66.25;100020.59;6242092;23;20475;-80
2021/09/17 01:54:26;;;;;;;10.05;4.47;;;;;;;7.71;66.02;100007.97;6243661;22;20020;-78
2021/09/17 01:56:52;;;;;;;8.07;4.55;;;;;;;7.67;66.13;100012.56;6241907;23;20012;-79
2021/09/17 01:59:18;;;;;;;7.95;3.90;;;;;;;7.65;66.05;100014.47;6217295;23;20014;-81
2021/09/17 02:01:44;;;;;;;10.40;4.38;;;;;;;7.70;65.53;100006.25;6240736;23;20023;-79
2021/09/17 02:04:10;;;;;;;8.45;4.15;;;;;;;7.63;66.03;100010.19;6242653;22;20047;-79
2021/09/17 02:06:37;;;;;;;9.45;3.97;;;;;;;7.60;65.92;100004.19;6241538;23;20450;-79
2021/09/17 02:09:03;;;;;;;8.90;4.28;;;;;;;7.58;66.04;100007.84;6243541;22;20388;-79
2021/09/17 02:11:29;;;;;;;7.30;4.00;;;;;;;7.72;65.58;100004.41;6242076;23;20057;-82
2021/09/17 02:13:55;;;;;;;10.05;4.10;;;;;;;7.77;65.04;100012.84;6242265;23;20435;-78
2021/09/17 02:16:21;;;;;;;7.97;4.03;;;;;;;7.66;65.83;100015.28;6192090;23;20016;-78
2021/09/17 02:18:47;;;;;;;9.80;4.28;;;;;;;7.57;66.24;100012.25;6216704;23;20081;-77
2021/09/17 02:21:20;;;;;;;10.93;5.10;;;;;;;7.60;65.71;100017.34;6244228;22;20024;-78
2021/09/17 02:23:46;;;;;;;10.95;4.72;;;;;;;7.54;65.54;100007.19;6244150;22;20470;-81
2021/09/17 02:26:12;;;;;;;10.63;4.22;;;;;;;7.52;65.41;100003.78;6242560;23;20039;-80
2021/09/17 02:28:38;;;;;;;10.10;4.75;;;;;;;7.53;64.80;100016.00;6243803;23;20016;-78
2021/09/17 02:31:03;;;;;;;9.43;4.30;;;;;;;7.57;64.73;100012.25;6242014;23;20035;-80
2021/09/17 02:33:32;;;;;;;10.10;4.28;;;;;;;7.57;64.30;100012.25;6242359;23;20004;-77
2021/09/17 02:35:58;;;;;;;8.57;4.60;;;;;;;7.55;64.00;100018.53;6267532;22;20035;-78
2021/09/17 02:38:25;;;;;;;8.07;3.90;;;;;;;7.59;64.15;100025.34;6243959;23;20016;-80
2021/09/17 02:40:51;;;;;;;9.52;4.15;;;;;;;7.54;64.70;100027.38;6241953;23;20018;-79
2021/09/17 02:43:17;;;;;;;13.02;4.38;;;;;;;7.57;64.51;100027.22;6217356;23;20070;-80
2021/09/17 02:45:43;;;;;;;20.77;7.57;;;;;;;7.61;64.58;100028.72;6243953;23;20004;-82
2021/09/17 02:48:09;;;;;;;12.68;6.07;;;;;;;7.66;63.87;100020.56;6243629;23;20061;-80
2021/09/17 02:50:35;;;;;;;8.07;4.25;;;;;;;7.61;64.38;100029.59;6245289;23;20012;-77
2021/09/17 02:53:07;;;;;;;11.93;4.57;;;;;;;7.46;64.61;100022.56;6219516;23;20411;-76
2021/09/17 02:55:33;;;;;;;7.68;4.15;;;;;;;7.36;65.10;100035.41;6249000;22;20008;-75
2021/09/17 02:58:03;;;;;;;12.45;4.57;;;;;;;7.38;64.97;100038.81;6248839;22;20011;-79
2021/09/17 03:00:29;;;;;;;18.58;5.45;;;;;;;7.36;65.12;100035.41;6251170;23;20034;-79
2021/09/17 03:02:55;;;;;;;9.85;5.03;;;;;;;7.37;65.59;100041.53;6269986;22;20058;-79
2021/09/17 03:05:21;;;;;;;12.23;5.43;;;;;;;7.35;65.88;100039.00;6246147;23;20016;-81
2021/09/17 03:07:49;;;;;;;8.35;4.85;;;;;;;7.29;66.23;100034.94;6244951;23;20012;-80
2021/09/17 03:10:16;;;;;;;12.00;5.10;;;;;;;7.45;65.79;100036.66;6219800;23;20090;-81
2021/09/17 03:12:45;;;;;;;15.73;5.28;;;;;;;7.58;65.96;100044.72;6219899;23;20016;-81
2021/09/17 03:15:11;;;;;;;12.93;5.40;;;;;;;7.62;65.43;100033.06;6270122;22;20103;-79
2021/09/17 03:17:36;;;;;;;10.70;4.55;;;;;;;7.54;66.55;100037.91;6218721;23;20095;-82
2021/09/17 03:20:03;;;;;;;10.43;4.80;;;;;;;7.69;66.02;100030.88;6218843;23;20040;-82
2021/09/17 03:22:28;;;;;;;13.45;5.07;;;;;;;7.67;65.74;100030.16;6244365;23;20024;-80
2021/09/17 03:24:54;;;;;;;10.93;5.45;;;;;;;7.69;66.17;100034.38;6246654;23;20372;-80
2021/09/17 03:27:20;;;;;;;11.82;5.57;;;;;;;7.73;65.93;100035.06;6218922;23;20012;-82
2021/09/17 03:29:46;;;;;;;11.98;5.03;;;;;;;7.81;65.53;100024.91;6244737;23;20506;-80
2021/09/17 03:32:12;;;;;;;10.75;5.05;;;;;;;7.84;65.54;100035.25;6245759;23;20065;-81
2021/09/17 03:34:38;;;;;;;10.02;4.90;;;;;;;7.85;65.71;100031.69;6243952;23;20016;-81
2021/09/17 03:37:04;;;;;;;13.43;6.15;;;;;;;7.79;65.70;100032.06;6244952;22;20012;-78
2021/09/17 03:39:29;;;;;;;17.02;5.28;;;;;;;7.87;65.82;100024.53;6218247;23;20111;-78
2021/09/17 03:41:55;;;;;;;12.25;5.53;;;;;;;7.83;65.53;100033.56;6269555;22;20048;-78
2021/09/17 03:44:21;;;;;;;15.30;4.95;;;;;;;7.82;65.69;100034.50;6193022;23;20095;-78
2021/09/17 03:46:47;;;;;;;15.27;5.57;;;;;;;7.86;65.88;100024.63;6245377;22;20016;-79
2021/09/17 03:49:13;;;;;;;16.90;5.78;;;;;;;7.81;65.71;100035.44;6218236;23;20404;-82
2021/09/17 03:51:39;;;;;;;16.05;6.00;;;;;;;7.73;66.22;100021.88;6243793;23;20019;-79
2021/09/17 03:54:05;;;;;;;15.23;5.63;;;;;;;7.74;66.79;100026.22;6244695;23;20012;-80
2021/09/17 03:56:31;;;;;;;17.85;5.50;;;;;;;7.84;65.96;100034.41;6245359;23;20010;-78
2021/09/17 03:58:57;;;;;;;14.65;6.38;;;;;;;7.80;66.14;100025.84;6218768;23;20016;-79
2021/09/17 04:01:23;;;;;;;15.70;6.20;;;;;;;7.85;66.70;100031.69;6243711;23;20018;-82
2021/09/17 04:03:49;;;;;;;14.80;6.82;;;;;;;7.82;66.40;100037.13;6245134;23;20431;-79
2021/09/17 04:06:14;;;;;;;15.18;6.03;;;;;;;7.80;66.23;100044.28;6245017;22;20012;-79
2021/09/17 04:08:40;;;;;;;13.13;6.22;;;;;;;7.79;66.21;100039.97;6245431;23;20043;-81
2021/09/17 04:11:06;;;;;;;12.88;6.18;;;;;;;7.81;66.20;100039.84;6243224;23;20024;-81
2021/09/17 04:13:33;;;;;;;16.40;6.68;;;;;;;7.70;65.58;100043.13;6243305;23;20043;-78
2021/09/17 04:15:59;;;;;;;15.00;6.75;;;;;;;7.57;65.89;100043.00;6244269;23;20012;-81
2021/09/17 04:18:24;;;;;;;17.80;7.32;;;;;;;7.59;66.28;100041.97;6194090;23;20004;-80
2021/09/17 04:20:52;;;;;;;18.88;7.60;;;;;;;7.60;66.62;100046.31;6245432;22;20020;-80
2021/09/17 04:23:19;;;;;;;16.88;7.07;;;;;;;7.59;65.71;100046.41;6192393;23;20012;-82
2021/09/17 04:25:44;;;;;;;16.20;7.47;;;;;;;7.69;65.32;100051.94;6244786;23;20004;-81
2021/09/17 04:28:10;;;;;;;19.23;8.10;;;;;;;7.70;65.65;100056.28;6194600;23;20016;-77
2021/09/17 04:30:36;;;;;;;16.15;7.10;;;;;;;7.71;65.00;100050.94;6247118;23;20008;-80
2021/09/17 04:33:02;;;;;;;19.60;7.95;;;;;;;7.73;65.00;100053.47;6218801;23;20008;-80
2021/09/17 04:35:28;;;;;;;17.95;7.50;;;;;;;7.63;62.55;100055.81;6243509;23;20066;-78
2021/09/17 04:37:56;;;;;;;17.88;7.15;;;;;;;7.58;61.39;100056.06;6242749;23;20068;-80
2021/09/17 04:40:23;;;;;;;;;;;;;;;7.57;61.87;100054.38;6244747;22;20012;-78
2021/09/17 04:42:49;;;;;;;17.05;7.20;;;;;;;7.66;61.49;100052.97;6242927;23;19931;-81
2021/09/17 04:45:15;;;;;;;15.73;7.53;;;;;;;7.80;60.47;100060.09;6243271;23;20070;-79
2021/09/17 04:47:41;;;;;;;22.65;8.82;;;;;;;7.86;60.56;100057.09;6218116;23;20020;-80
2021/09/17 04:50:09;;;;;;;24.65;8.82;;;;;;;7.86;60.79;100058.84;6242521;23;20019;-77
2021/09/17 04:52:35;;;;;;;20.98;9.15;;;;;;;7.85;60.48;100058.03;6216828;23;20019;-77
2021/09/17 04:55:02;;;;;;;23.10;8.57;;;;;;;8.02;60.84;100050.88;6244310;22;20012;-78
2021/09/17 04:57:27;;;;;;;18.70;8.65;;;;;;;8.19;59.88;100055.97;6242837;23;20342;-79
2021/09/17 04:59:54;;;;;;;23.92;9.35;;;;;;;8.15;59.26;100054.47;6243438;23;20012;-81
2021/09/17 05:02:20;;;;;;;19.55;9.38;;;;;;;8.27;59.52;100058.13;6218375;23;20008;-76
2021/09/17 05:04:46;;;;;;;18.70;7.97;;;;;;;8.36;58.71;100054.94;6244879;22;20011;-80
2021/09/17 05:07:12;;;;;;;19.75;8.55;;;;;;;8.31;58.70;100053.53;6268755;22;20015;-80
2021/09/17 05:09:38;;;;;;;23.52;8.13;;;;;;;8.26;58.45;100052.03;6244532;22;20087;-81
2021/09/17 05:12:05;;;;;;;19.17;7.78;;;;;;;8.35;58.34;100055.03;6244257;22;20040;-79
2021/09/17 05:14:31;;;;;;;19.92;8.20;;;;;;;8.36;57.26;100056.72;6269363;22;20451;-78
2021/09/17 05:16:57;;;;;;;21.00;8.20;;;;;;;8.34;57.66;100058.63;6243353;23;20020;-80
2021/09/17 05:19:25;;;;;;;21.33;9.05;;;;;;;8.42;57.20;100059.84;6246486;22;20435;-79
2021/09/17 05:21:52;;;;;;;18.90;9.23;;;;;;;8.43;56.99;100053.59;6243741;23;20020;-75
2021/09/17 05:24:18;;;;;;;22.20;8.40;;;;;;;8.36;56.89;100056.72;6244465;22;20015;-78
2021/09/17 05:26:44;;;;;;;18.65;8.35;;;;;;;8.29;56.19;100053.63;6245548;22;20016;-81
2021/09/17 05:29:10;;;;;;;24.77;8.93;;;;;;;8.32;56.38;100049.97;6243828;23;20057;-78
2021/09/17 05:31:36;;;;;;;20.60;8.65;;;;;;;8.30;56.74;100047.44;6271485;22;20533;-79
2021/09/17 05:34:01;;;;;;;20.13;8.13;;;;;;;8.30;56.86;100050.06;6243828;23;20023;-81
2021/09/17 05:36:27;;;;;;;20.55;8.95;;;;;;;8.31;56.69;100048.25;6219277;23;20008;-78
2021/09/17 05:38:53;;;;;;;18.67;8.15;;;;;;;8.36;56.48;100052.31;6268923;22;20004;-79
2021/09/17 05:41:19;;;;;;;18.30;7.60;;;;;;;8.43;56.22;100047.50;6244591;22;20016;-77
2021/09/17 05:43:45;;;;;;;19.20;8.18;;;;;;;8.35;55.66;100037.44;6244984;22;20011;-78
2021/09/17 05:46:10;;;;;;;24.67;8.93;;;;;;;8.34;56.10;100032.28;6245137;22;20355;-81
2021/09/17 05:48:36;;;;;;;32.25;10.48;;;;;;;8.34;56.35;100033.09;6244807;23;20358;-80
2021/09/17 05:51:02;;;;;;;32.60;10.65;;;;;;;8.31;56.21;100027.19;6242567;23;20039;-79
2021/09/17 05:53:28;;;;;;;28.65;10.65;;;;;;;8.25;56.43;100034.53;6244743;22;20023;-79
2021/09/17 05:55:54;;;;;;;25.17;9.63;;;;;;;8.26;57.26;100040.63;6243462;23;20008;-82
2021/09/17 05:58:19;;;;;;;21.67;9.48;;;;;;;8.24;57.03;100032.81;6242559;23;20019;-78
2021/09/17 06:00:45;;;;;;;20.77;8.73;;;;;;;8.34;57.01;100029.63;6244776;22;20008;-78
2021/09/17 06:03:11;;;;;;;24.80;8.48;;;;;;;8.52;56.63;100022.38;6218239;23;20012;-80
2021/09/17 06:05:37;;;;;;;22.67;8.38;;;;;;;8.67;56.37;100039.03;6242978;23;20045;-82
2021/09/17 06:08:03;;;;;;;24.88;9.10;;;;;;;8.64;56.28;100033.97;6242705;23;20416;-83
2021/09/17 06:10:29;;;;;;;26.17;8.88;;;;;;;8.62;56.43;100030.56;6243076;23;20023;-80
2021/09/17 06:12:55;;;;;;;19.65;7.68;;;;;;;8.55;55.41;100030.94;6244631;22;20004;-77
2021/09/17 06:15:20;;;;;;;19.98;7.85;;;;;;;8.59;55.32;100031.59;6244493;23;20031;-79
2021/09/17 06:17:46;;;;;;;18.88;7.70;;;;;;;8.68;55.46;100036.28;6243372;23;20387;-82
2021/09/17 06:20:12;;;;;;;22.08;8.90;;;;;;;8.66;55.03;100032.06;6245047;23;20494;-78
2021/09/17 06:22:45;;;;;;;18.23;8.20;;;;;;;8.63;55.71;100037.53;6244764;22;20326;-78
2021/09/17 06:25:15;;;;;;;14.27;6.78;;;;;;;8.65;55.59;100039.13;6243052;23;20012;-79
2021/09/17 06:27:42;;;;;;;16.08;7.47;;;;;;;8.62;56.06;100030.56;6246667;22;20046;-79
2021/09/17 06:30:09;;;;;;;18.98;8.13;;;;;;;8.65;56.23;100031.22;6247255;23;20362;-78
2021/09/17 06:32:35;;;;;;;20.33;7.18;;;;;;;8.58;56.19;100045.72;6243750;23;20055;-77
2021/09/17 06:35:00;;;;;;;22.02;7.55;;;;;;;8.56;56.75;100043.19;6245056;23;20319;-76
2021/09/17 06:37:26;;;;;;;21.98;7.22;;;;;;;8.54;56.97;100050.34;6243949;23;20031;-78
2021/09/17 06:39:52;;;;;;;17.83;8.43;;;;;;;8.62;56.92;100054.28;6244915;22;20374;-78
2021/09/17 06:42:19;;;;;;;16.33;7.40;;;;;;;8.61;57.39;100060.50;6245068;23;20012;-78
2021/09/17 06:44:44;;;;;;;21.17;8.18;;;;;;;8.55;57.07;100059.13;6269415;22;20016;-79
2021/09/17 06:47:11;;;;;;;16.10;7.35;;;;;;;8.53;57.15;100061.81;6244492;22;20102;-77
2021/09/17 06:49:37;;;;;;;16.45;6.78;;;;;;;8.48;57.85;100057.81;6242772;23;20016;-78
2021/09/17 06:52:03;;;;;;;20.63;7.70;;;;;;;8.55;57.33;100057.31;6245548;23;20008;-78
2021/09/17 06:54:29;;;;;;;20.83;8.20;;;;;;;8.67;56.09;100054.84;6245191;23;20008;-81
2021/09/17 06:56:55;;;;;;;27.23;8.38;;;;;;;8.66;55.99;100047.88;6245831;23;20094;-79
2021/09/17 06:59:21;;;;;;;22.77;8.15;;;;;;;8.69;55.92;100053.81;6246550;23;20004;-78
2021/09/17 07:01:47;;;;;;;25.23;9.60;;;;;;;8.64;55.68;100050.63;6246954;22;20484;-81
2021/09/17 07:04:15;;;;;;;21.05;8.27;;;;;;;8.64;55.65;100049.78;6222929;23;20012;-81
2021/09/17 07:06:41;;;;;;;16.00;7.15;;;;;;;8.62;55.32;100051.66;6246142;23;20012;-79
2021/09/17 07:09:06;;;;;;;18.48;7.20;;;;;;;8.49;55.46;100049.78;6244442;23;20086;-77
2021/09/17 07:11:32;;;;;;;18.58;6.65;;;;;;;8.49;55.32;100052.44;6246184;23;20320;-78
2021/09/17 07:13:58;;;;;;;18.88;8.23;;;;;;;8.51;55.43;100047.91;6248552;23;20034;-81
2021/09/17 07:16:24;;;;;;;20.95;6.93;;;;;;;8.49;55.55;100043.69;6245243;23;20020;-79
2021/09/17 07:18:50;;;;;;;17.27;5.90;;;;;;;8.46;54.88;100047.34;6243386;23;20015;-78
2021/09/17 07:21:15;;;;;;;11.45;5.28;;;;;;;8.46;55.00;100050.00;6244666;23;20362;-79
2021/09/17 07:23:41;;;;;;;19.60;6.38;;;;;;;8.48;55.07;100049.91;6244935;22;20005;-78
2021/09/17 07:26:07;;;;;;;20.35;6.05;;;;;;;8.50;54.72;100042.72;6245822;23;20020;-78
2021/09/17 07:28:33;;;;;;;24.77;6.85;;;;;;;8.52;55.11;100046.13;6245124;22;20022;-80
2021/09/17 07:31:03;;;;;;;18.85;6.82;;;;;;;8.61;55.12;100044.69;6243491;23;20008;-78
2021/09/17 07:33:28;;;;;;;19.52;8.02;;;;;;;8.67;55.11;100049.56;6219176;23;20016;-79
2021/09/17 07:35:54;;;;;;;18.25;7.80;;;;;;;8.70;55.16;100050.22;6248598;23;20015;-78
2021/09/17 07:38:20;;;;;;;18.67;6.97;;;;;;;8.74;55.13;100048.25;6250711;22;20315;-80
2021/09/17 07:40:46;;;;;;;29.23;8.70;;;;;;;8.78;54.93;100055.00;6246702;22;20040;-79
2021/09/17 07:43:12;;;;;;;24.70;8.45;;;;;;;8.81;54.86;100046.91;6246637;22;20012;-77
2021/09/17 07:45:38;;;;;;;19.52;6.55;;;;;;;8.78;54.71;100046.28;6245220;23;20434;-78
2021/09/17 07:48:04;;;;;;;17.27;7.03;;;;;;;8.90;54.01;100048.97;6246071;23;20382;-78
2021/09/17 07:50:30;;;;;;;17.88;7.15;;;;;;;9.04;53.86;100048.06;6246931;23;20008;-78
2021/09/17 07:52:57;;;;;;;17.92;7.45;;;;;;;8.98;53.01;100053.72;6247364;22;20008;-82
2021/09/17 07:55:23;;;;;;;19.25;7.22;;;;;;;8.77;53.60;100057.75;6245692;22;20414;-79
2021/09/17 07:57:49;;;;;;;20.90;8.23;;;;;;;8.78;53.98;100057.66;6245648;23;20012;-79
2021/09/17 08:00:16;;;;;;;21.00;8.13;;;;;;;8.89;53.64;100055.16;6247117;23;20008;-76
2021/09/17 08:02:45;;;;;;;30.65;9.38;;;;;;;8.93;53.72;100065.53;6219701;23;20026;-80
2021/09/17 08:05:13;;;;;;;21.98;8.35;;;;;;;8.84;53.08;100059.91;6245980;22;20020;-80
2021/09/17 08:07:38;;;;;;;27.23;9.02;;;;;;;8.87;53.47;100067.63;6247014;23;20355;-79
2021/09/17 08:10:05;;;;;;;20.55;8.55;;;;;;;8.93;53.75;100060.25;6272414;22;20054;-79
2021/09/17 08:12:31;;;;;;;21.75;7.78;;;;;;;8.98;53.05;100066.91;6246401;23;20140;-79
2021/09/17 08:14:57;;;;;;;29.50;7.70;;;;;;;8.89;53.11;100065.72;6196287;23;20068;-80
2021/09/17 08:17:23;;;;;;;20.60;7.32;;;;;;;8.85;52.69;100069.50;6219715;23;20008;-77
2021/09/17 08:19:54;;;;;;;18.20;7.35;;;;;;;8.92;52.74;100071.75;6197754;23;20014;-81
2021/09/17 08:22:20;;;;;;;22.15;7.75;;;;;;;8.95;52.71;100068.91;6195783;23;20075;-79
2021/09/17 08:24:46;;;;;;;18.75;7.15;;;;;;;8.98;52.88;100060.81;6249783;22;20404;-78
2021/09/17 08:27:15;;;;;;;19.60;7.07;;;;;;;9.01;52.51;100058.81;6244596;23;20035;-77
2021/09/17 08:29:43;;;;;;;20.50;7.00;;;;;;;8.86;52.29;100063.28;6246571;22;20015;-79
2021/09/17 08:32:30;;;;;;;24.17;8.48;;;;;;;8.96;51.97;100058.28;6223918;23;20008;-76
2021/09/17 08:35:14;;;;;;;18.73;6.55;;;;;;;8.85;52.30;100064.22;6247059;22;20042;-79
2021/09/17 08:38:01;;;;;;;17.63;7.60;;;;;;;8.75;52.48;100068.41;6246200;23;20331;-78
2021/09/17 08:40:29;;;;;;;17.15;7.13;;;;;;;8.72;53.03;100063.31;6247593;22;20015;-79
2021/09/17 08:43:00;;;;;;;19.00;8.18;;;;;;;8.84;53.24;100065.16;6246516;22;20025;-80
2021/09/17 08:45:30;;;;;;;15.70;6.38;;;;;;;8.90;52.36;100064.78;6244721;23;20079;-81
2021/09/17 08:48:00;;;;;;;13.65;5.63;;;;;;;8.88;52.67;100065.81;6245852;22;20008;-78
2021/09/17 08:50:29;;;;;;;14.40;6.78;;;;;;;8.91;52.52;100057.72;6245718;22;20103;-78
2021/09/17 08:52:56;;;;;;;13.43;5.97;;;;;;;9.01;51.79;100060.59;6246230;23;20379;-79
2021/09/17 08:55:22;;;;;;;16.63;5.88;;;;;;;8.97;51.23;100056.47;6271155;22;20411;-78
2021/09/17 08:57:48;;;;;;;13.50;5.47;;;;;;;8.98;50.29;100055.53;6245761;22;20020;-79
2021/09/17 09:00:26;;;;;;;18.77;6.40;;;;;;;8.84;50.55;100051.16;6248735;22;20012;-81
2021/09/17 09:02:57;;;;;;;17.42;6.38;;;;;;;8.88;50.72;100053.50;6245452;23;20012;-78
2021/09/17 09:05:33;;;;;;;10.80;5.60;;;;;;;8.97;50.33;100048.56;6243070;23;20307;-82
2021/09/17 09:08:03;;;;;;;16.10;6.25;;;;;;;9.09;49.95;100047.78;6270313;22;20054;-81
2021/09/17 09:10:29;;;;;;;13.30;6.07;;;;;;;8.99;49.93;100044.03;6248811;23;20012;-82
2021/09/17 09:13:01;;;;;;;14.85;6.15;;;;;;;8.96;50.34;100045.09;6221787;23;20018;-79
2021/09/17 09:15:29;;;;;;;20.15;7.45;;;;;;;8.88;50.35;100050.00;6219646;23;20019;-83
2021/09/17 09:18:01;;;;;;;17.33;6.93;;;;;;;8.89;50.58;100049.91;6198632;23;20012;-79
2021/09/17 09:20:35;;;;;;;11.30;5.32;;;;;;;8.97;50.42;100057.34;6244277;23;20055;-79
2021/09/17 09:23:10;;;;;;;13.40;6.32;;;;;;;9.01;50.20;100045.63;6244438;23;20008;-78
2021/09/17 09:26:00;;;;;;;14.23;6.20;;;;;;;8.97;49.91;100053.84;6246785;23;20016;-80
2021/09/17 09:28:30;;;;;;;14.85;6.85;;;;;;;8.89;49.90;100049.91;6244414;23;20015;-79
2021/09/17 09:30:57;;;;;;;16.35;6.20;;;;;;;8.78;49.87;100055.00;6168825;23;20062;-78
2021/09/17 09:33:38;;;;;;;14.00;6.13;;;;;;;8.94;49.76;100046.13;6244562;23;20015;-78
2021/09/17 09:36:14;;;;;;;12.18;6.28;;;;;;;9.02;49.79;100043.84;6245641;22;20163;-80
2021/09/17 09:38:40;;;;;;;16.98;6.85;;;;;;;9.05;50.14;100043.66;6244350;23;20004;-81
2021/09/17 09:41:11;;;;;;;16.60;5.90;;;;;;;9.21;49.62;100046.13;6243569;23;20011;-77
2021/09/17 09:43:47;;;;;;;14.52;6.47;;;;;;;9.15;49.29;100052.66;6246781;23;20008;-81
2021/09/17 09:46:30;;;;;;;13.73;5.68;;;;;;;9.16;48.96;100057.00;6243590;23;20008;-80
2021/09/17 09:48:59;;;;;;;16.15;6.47;;;;;;;9.12;49.18;100055.50;6246720;23;20019;-82
2021/09/17 09:51:26;;;;;;;17.95;6.45;;;;;;;9.10;48.53;100051.25;6244912;23;20012;-79
2021/09/17 09:53:52;;;;;;;14.85;6.78;;;;;;;9.05;48.87;100056.84;6246990;23;20012;-76
2021/09/17 09:56:22;;;;;;;16.05;6.50;;;;;;;9.00;49.11;100056.28;6244966;23;20081;-78
2021/09/17 09:58:49;;;;;;;14.63;6.75;;;;;;;9.13;49.43;100062.44;6247104;22;20011;-79
2021/09/17 10:01:18;;;;;;;15.88;6.22;;;;;;;9.35;48.55;100066.34;6246617;22;20494;-78
2021/09/17 10:03:46;;;;;;;14.75;6.88;;;;;;;9.44;48.40;100057.81;6246128;23;20012;-81
2021/09/17 10:06:14;;;;;;;13.83;6.77;;;;;;;9.50;48.37;100060.03;6245395;23;20017;-81
2021/09/17 10:08:41;;;;;;;17.80;6.72;;;;;;;9.65;48.63;100062.63;6194230;23;20246;-80
2021/09/17 10:11:07;;;;;;;17.42;7.43;;;;;;;9.69;48.18;100064.97;6244449;23;20016;-77
2021/09/17 10:13:33;;;;;;;17.23;7.57;;;;;;;9.70;47.95;100069.25;6248372;23;20015;-79
2021/09/17 10:15:59;;;;;;;17.27;6.93;;;;;;;9.96;47.38;100065.84;6253660;22;20103;-79
2021/09/17 10:18:26;;;;;;;16.63;7.43;;;;;;;9.93;46.51;100068.66;6254886;23;20046;-81
2021/09/17 10:20:52;;;;;;;17.73;7.00;;;;;;;9.95;46.76;100064.13;6252956;22;20091;-78
2021/09/17 10:23:30;;;;;;;20.70;7.85;;;;;;;9.94;46.07;100062.44;6221454;23;20047;-79
2021/09/17 10:26:04;;;;;;;14.45;6.75;;;;;;;9.98;46.69;100066.56;6270492;22;20087;-79
2021/09/17 10:28:31;;;;;;;14.50;6.40;;;;;;;10.19;46.28;100057.16;6195483;23;20008;-78
2021/09/17 10:31:17;;;;;;;95.00;39.00;;;;;;;10.03;45.70;100062.66;6247278;23;20008;-79
2021/09/17 10:33:43;;;;;;;18.65;7.25;;;;;;;9.90;45.86;100063.59;6172256;23;20008;-78
2021/09/17 10:36:09;;;;;;;15.18;5.88;;;;;;;9.83;45.17;100058.75;6248134;23;20039;-81
2021/09/17 10:38:35;;;;;;;17.63;7.00;;;;;;;9.92;45.25;100061.69;6192803;23;20046;-77
2021/09/17 10:41:04;;;;;;;20.95;6.40;;;;;;;10.13;45.11;100065.50;6245997;22;20012;-80
2021/09/17 10:43:58;;;;;;;12.75;6.10;;;;;;;10.15;44.23;100065.41;6246803;23;20012;-82
2021/09/17 10:46:24;;;;;;;12.57;5.35;;;;;;;9.98;43.88;100063.91;6220185;23;20023;-79
2021/09/17 10:48:53;;;;;;;12.77;5.75;;;;;;;10.03;44.04;100067.06;6246398;22;20012;-78
2021/09/17 10:51:38;;;;;;;10.32;5.50;;;;;;;10.08;43.48;100072.91;6245725;23;20095;-78
2021/09/17 10:54:20;;;;;;;10.65;5.30;;;;;;;10.02;42.96;100060.13;6219363;23;20020;-78
2021/09/17 10:56:49;;;;;;;15.65;6.13;;;;;;;9.97;43.15;100068.38;6219367;23;20012;-80
2021/09/17 10:59:24;;;;;;;19.10;5.50;;;;;;;9.74;43.82;100069.06;6244448;23;20050;-83
2021/09/17 11:01:55;;;;;;;13.27;5.95;;;;;;;9.75;44.54;100068.13;6243798;23;20012;-80
2021/09/17 11:04:30;;;;;;;18.98;6.18;;;;;;;9.82;44.47;100066.75;6245934;23;20361;-79
2021/09/17 11:07:16;;;;;;;15.30;6.70;;;;;;;10.01;44.13;100058.44;6249577;23;20062;-78
2021/09/17 11:09:48;;;;;;;20.60;7.63;;;;;;;10.20;43.79;100058.84;6249550;22;20087;-77
2021/09/17 11:12:32;;;;;;;15.15;6.68;;;;;;;10.23;43.90;100062.22;6249297;23;20008;-82
2021/09/17 11:15:12;;;;;;;22.00;7.25;;;;;;;10.19;44.00;100062.44;6251951;22;20471;-81
2021/09/17 11:18:01;;;;;;;13.98;5.90;;;;;;;10.11;43.84;100059.47;6198065;23;20012;-78
2021/09/17 11:20:31;;;;;;;11.90;5.68;;;;;;;10.14;43.88;100059.28;6198239;23;20354;-79
2021/09/17 11:23:05;;;;;;;63.30;24.58;;;;;;;10.06;44.79;100058.97;6272674;22;20012;-78
2021/09/17 11:25:42;;;;;;;14.80;6.88;;;;;;;10.25;44.26;100060.31;6248713;23;20043;-77
2021/09/17 11:28:31;;;;;;;13.43;6.25;;;;;;;10.12;44.60;100066.47;6247109;23;20050;-80
2021/09/17 11:31:14;;;;;;;15.20;5.93;;;;;;;9.96;44.69;100071.94;6247144;23;20015;-80